Arch, NM

11:03 AM MDT on August 30, 2014 (GMT -0600)
S of ENMU | Change Station
CLOSE
Current Station
Personal Weather Station
Location: Portales, NM
Elevation: 4078 ft
Nearby Weather Stations

Elev 4078 ft 34.17 °N, 103.35 °W | Updated 5 seconds ago

Clear
Clear
90.5 °F
Feels Like 90 °F
N
0.2
Wind Variable Wind from NW
Gusts 7.6 mph

Today
High -- | Low -- °F
--% Chance of Precip.
Yesterday
High -- | Low -- °F
Precip. -- in
6:25 AM 7:21 PM
Waxing Crescent, 23% visible
Pressure 29.95 in
Visibility 10.0 miles
Clouds Clear
Heat Index 90 °F
Dew Point 60 °F
Humidity 36%
Rainfall 0.00 in
Snow Depth Not available.
UV 9 out of 12
Pollen 9.60 out of 12
Air Quality Not available.
Flu Activity Not available.
METAR KCVS 301658Z AUTO 24004KT 10SM CLR 28/14 A3013 RMK AO2 SLP141 T02820142 $

More Conditions Fewer Conditions

Pressure 29.95 in
Visibility 10.0 miles
Clouds Clear
Heat Index 90 °F
Dew Point 60 °F
Humidity 36%
Rainfall 0.00 in
Snow Depth Not available.
UV 9 out of 12
Pollen 9.60 out of 12
Air Quality Not available.
Flu Activity Not available.
METAR KCVS 301658Z AUTO 24004KT 10SM CLR 28/14 A3013 RMK AO2 SLP141 T02820142 $

More Conditions Fewer Conditions

10-Day Weather Forecast

Almanac

Astronomy

Aug. 30, 2014 Rise Set
Actual Time 6:25 AM MDT 7:21 PM MDT
Civil Twilight 5:59 AM MDT 7:47 PM MDT
Nautical Twilight 5:29 AM MDT 8:17 PM MDT
Astronomical Twilight 4:58 AM MDT 8:48 PM MDT
Moon 11:00 AM MDT 10:12 PM MDT
Length of Visible Light 13h 47m
Length of Day
12h 56m
Tomorrow will be 2m 1s shorter.
Waxing Crescent, 23% of the Moon is Illuminated
Today
Waxing Crescent
Sep 2
First Quarter
Sep 8
Full
Sep 15
Last Quarter
Sep 24
New

Today's Extremes

State Highs State Lows

Community

WunderPhotos

Upload Photos

1,748,566 photos uploaded!

WunderBlogs® & News

Nearby

Snow Depth

Station Depth Elevation
Sierra Blanca 2 in 10280 ft
Wesner Springs 1 in 11120 ft
Gallegos Peak 0 in 9800 ft
Quemazon 1 in 9500 ft
North Costilla 2 in 10600 ft

Earthquake Activity

City Distance Mag. Time & Date
No recent earthquake activity has been reported nearby.
Minimum magnitude displayed is 2.5.

Coastal Water Temperatures

Place Temperature
No Stations Reporting

Nearby Weather Stations